Time;durP1;ratioP1;P1;durP2;ratioP2;P2;SDS_P1;SDS_P2;PMS_P1;PMS_P2;Temp;Humidity;BMP_temperature;BMP_pressure;BME280_temperature;BME280_humidity;BME280_pressure;Samples;Min_cycle;Max_cycle;Signal;HPM_P1;HPM_P2
2022/07/06 00:01:20;;;;;;;5.45;3.25;;;;;;;21.43;76.83;98893.45;1778960;80;21137;-85
2022/07/06 00:03:47;;;;;;;8.63;3.50;;;;;;;21.42;77.51;98888.23;1777057;81;21014;-86
2022/07/06 00:06:16;;;;;;;5.03;3.20;;;;;;;21.39;77.88;98891.13;1743147;82;21039;-85
2022/07/06 00:08:44;;;;;;;6.17;2.92;;;;;;;21.37;77.29;98889.06;1765183;81;21018;-85
2022/07/06 00:11:11;;;;;;;4.65;2.65;;;;;;;21.39;77.17;98885.83;1746405;82;20974;-85
2022/07/06 00:13:38;;;;;;;8.38;2.50;;;;;;;21.37;77.45;98889.06;1780980;80;21084;-85
2022/07/06 00:16:05;;;;;;;5.20;2.65;;;;;;;21.43;76.80;98882.03;1777018;81;21459;-86
2022/07/06 00:18:32;;;;;;;5.30;2.70;;;;;;;21.45;76.80;98878.80;1777168;81;20990;-85
2022/07/06 00:20:59;;;;;;;4.90;2.70;;;;;;;21.45;76.67;98885.41;1769910;80;21508;-85
2022/07/06 00:23:26;;;;;;;3.70;2.40;;;;;;;21.49;75.62;98879.39;1771594;80;21067;-85
2022/07/06 00:25:53;;;;;;;4.75;2.45;;;;;;;21.53;75.13;98879.08;1785607;80;20927;-83
2022/07/06 00:28:19;;;;;;;4.40;2.40;;;;;;;21.54;75.09;98882.07;1776491;80;21033;-85
2022/07/06 00:30:46;;;;;;;4.65;2.00;;;;;;;21.55;75.13;98871.03;1752563;80;21469;-84
2022/07/06 00:33:13;;;;;;;4.17;2.12;;;;;;;21.56;74.93;98877.51;1759236;81;20974;-86
2022/07/06 00:35:41;;;;;;;3.10;1.90;;;;;;;21.56;75.08;98877.51;1790151;80;20999;-85
2022/07/06 00:38:08;;;;;;;5.47;2.50;;;;;;;21.56;74.58;98868.25;1776878;81;21002;-84
2022/07/06 00:40:35;;;;;;;3.80;2.10;;;;;;;21.58;74.04;98868.15;1784832;80;20982;-85
2022/07/06 00:43:02;;;;;;;4.47;2.25;;;;;;;21.60;73.77;98861.77;1776397;80;21018;-84
2022/07/06 00:45:29;;;;;;;3.60;2.20;;;;;;;21.57;74.13;98863.34;1708795;81;21008;-85
2022/07/06 00:47:56;;;;;;;5.28;2.15;;;;;;;21.61;73.76;98859.52;1772011;80;20930;-85
2022/07/06 00:50:23;;;;;;;5.67;2.12;;;;;;;21.60;72.95;98856.97;1761106;81;21025;-86
2022/07/06 00:52:53;;;;;;;3.30;2.25;;;;;;;21.60;72.80;98844.58;1749556;81;21038;-86
2022/07/06 00:55:24;;;;;;;2.98;2.00;;;;;;;21.62;72.01;98838.70;1772691;81;21014;-85
2022/07/06 00:57:52;;;;;;;4.03;2.10;;;;;;;21.60;72.66;98834.48;1777483;81;21037;-85
2022/07/06 01:00:23;;;;;;;4.45;2.10;;;;;;;21.61;72.09;98831.73;1725947;82;21044;-83
2022/07/06 01:02:51;;;;;;;3.02;2.00;;;;;;;21.59;72.83;98837.63;1760966;80;20972;-84
2022/07/06 01:05:18;;;;;;;3.67;2.25;;;;;;;21.59;72.59;98848.20;1776689;81;21473;-85
2022/07/06 01:07:49;;;;;;;4.53;2.20;;;;;;;21.63;71.92;98848.34;1730147;82;21018;-85
2022/07/06 01:10:19;;;;;;;4.30;2.62;;;;;;;21.67;72.20;98864.83;1775406;81;20930;-84
2022/07/06 01:12:47;;;;;;;8.48;2.50;;;;;;;21.70;71.62;98867.72;1761029;80;20930;-85
2022/07/06 01:15:21;;;;;;;3.95;2.20;;;;;;;21.73;71.32;98876.27;1745825;81;21037;-84
2022/07/06 01:17:49;;;;;;;3.75;2.45;;;;;;;21.79;70.82;98898.30;1774723;81;21061;-84
2022/07/06 01:20:22;;;;;;;4.17;2.15;;;;;;;21.82;70.63;98915.75;1775911;81;20977;-85
2022/07/06 01:22:50;;;;;;;3.87;2.20;;;;;;;21.80;70.80;98925.59;1759742;81;21038;-85
2022/07/06 01:25:19;;;;;;;3.83;2.10;;;;;;;21.80;71.98;98946.77;1769465;81;21026;-85
2022/07/06 01:27:47;;;;;;;6.60;2.30;;;;;;;21.72;71.58;98956.59;1767235;80;20978;-85
2022/07/06 01:30:18;;;;;;;5.78;2.12;;;;;;;21.72;71.28;98955.75;1746141;82;20997;-85
2022/07/06 01:32:45;;;;;;;3.60;2.10;;;;;;;21.72;71.78;98961.05;1773068;81;20976;-85
2022/07/06 01:35:14;;;;;;;3.87;2.20;;;;;;;21.75;71.24;98963.48;1773780;80;21024;-86
2022/07/06 01:37:42;;;;;;;5.83;2.00;;;;;;;21.74;71.71;98964.42;1773738;80;20939;-85
2022/07/06 01:40:11;;;;;;;4.47;1.98;;;;;;;21.74;71.88;98956.48;1786592;78;21583;-84
2022/07/06 01:42:39;;;;;;;3.95;2.12;;;;;;;21.73;72.56;98957.45;1782100;80;20973;-85
2022/07/06 01:45:07;;;;;;;6.72;2.15;;;;;;;21.74;73.85;98956.00;1771255;80;20981;-85
2022/07/06 01:47:35;;;;;;;6.30;2.30;;;;;;;21.73;73.60;98960.94;1771240;81;21011;-85
2022/07/06 01:50:07;;;;;;;5.53;2.30;;;;;;;21.69;73.09;98956.83;1759800;81;20938;-85
2022/07/06 01:52:35;;;;;;;3.67;2.27;;;;;;;21.67;74.63;98956.59;1776635;80;20997;-84
2022/07/06 01:55:03;;;;;;;4.85;2.50;;;;;;;21.57;74.84;98950.63;1783570;80;20966;-84
2022/07/06 01:57:31;;;;;;;5.03;2.70;;;;;;;21.56;73.56;98947.61;1798357;80;21006;-85
2022/07/06 01:59:58;;;;;;;5.37;2.75;;;;;;;21.48;74.03;98954.42;1798730;80;20998;-85
2022/07/06 02:02:25;;;;;;;5.12;2.95;;;;;;;21.47;75.38;98950.07;1777337;81;20930;-85
2022/07/06 02:04:52;;;;;;;3.95;2.58;;;;;;;21.41;75.24;98946.06;1755493;81;20946;-85
2022/07/06 02:07:18;;;;;;;6.28;2.70;;;;;;;21.42;74.62;98942.45;1775946;81;20910;-85
2022/07/06 02:09:45;;;;;;;5.67;2.50;;;;;;;21.38;75.65;98940.98;1755980;81;21013;-86
2022/07/06 02:12:12;;;;;;;4.45;2.47;;;;;;;21.34;77.27;98939.52;1744729;82;21002;-84
2022/07/06 02:14:39;;;;;;;3.92;2.30;;;;;;;21.32;75.90;98929.53;1764442;80;21001;-85
2022/07/06 02:17:06;;;;;;;4.95;2.10;;;;;;;21.24;77.30;98927.43;1776160;80;20953;-85
2022/07/06 02:19:34;;;;;;;6.05;2.40;;;;;;;21.20;76.47;98928.13;1765629;80;20998;-86
2022/07/06 02:22:01;;;;;;;4.15;2.40;;;;;;;21.22;76.77;98920.92;1767640;81;21077;-86
2022/07/06 02:24:29;;;;;;;6.95;2.52;;;;;;;21.12;76.89;98913.29;1768457;81;20965;-85
2022/07/06 02:26:56;;;;;;;4.55;2.58;;;;;;;21.05;78.87;98906.28;1765820;80;20942;-85
2022/07/06 02:29:23;;;;;;;3.62;2.22;;;;;;;21.05;77.02;98904.97;1777353;80;20970;-86
2022/07/06 02:31:50;;;;;;;3.70;2.55;;;;;;;21.04;76.48;98899.78;1768853;81;20974;-82
2022/07/06 02:34:17;;;;;;;4.75;2.80;;;;;;;20.98;78.16;98906.34;1776507;80;20974;-86
2022/07/06 02:36:44;;;;;;;5.15;2.20;;;;;;;20.97;77.19;98900.70;1784028;80;20966;-85
2022/07/06 02:39:11;;;;;;;8.15;2.33;;;;;;;20.91;77.75;98901.59;1775504;79;21021;-83
2022/07/06 02:41:37;;;;;;;4.05;2.20;;;;;;;20.87;79.24;98894.39;1762195;81;21006;-83
2022/07/06 02:44:04;;;;;;;4.33;2.40;;;;;;;20.91;77.86;98906.88;1745169;82;21025;-83
2022/07/06 02:46:31;;;;;;;6.12;2.42;;;;;;;20.89;78.58;98908.34;1768539;80;20984;-84
2022/07/06 02:48:59;;;;;;;4.65;2.85;;;;;;;20.83;78.36;98905.64;1742007;81;20996;-83
2022/07/06 02:51:25;;;;;;;4.75;2.42;;;;;;;20.83;78.57;98893.76;1788510;80;20987;-84
2022/07/06 02:53:52;;;;;;;4.40;2.40;;;;;;;20.88;78.18;98897.38;1776274;80;20970;-84
2022/07/06 02:56:19;;;;;;;6.15;2.80;;;;;;;20.84;78.28;98894.59;1772766;80;20998;-84
2022/07/06 02:58:46;;;;;;;5.80;2.35;;;;;;;20.83;78.11;98903.00;1773323;80;21007;-82
2022/07/06 03:01:13;;;;;;;5.28;2.47;;;;;;;20.84;78.09;98899.39;1745668;81;21020;-84
2022/07/06 03:03:40;;;;;;;5.55;2.55;;;;;;;20.86;78.47;98902.77;1775780;81;21006;-85
2022/07/06 03:06:08;;;;;;;4.65;2.30;;;;;;;20.83;79.35;98899.05;1776665;81;21005;-85
2022/07/06 03:08:35;;;;;;;4.10;2.25;;;;;;;20.86;78.15;98904.58;1777298;81;21493;-84
2022/07/06 03:11:02;;;;;;;4.47;2.22;;;;;;;20.85;78.69;98897.62;1777267;81;20934;-85
2022/07/06 03:13:29;;;;;;;7.55;2.55;;;;;;;20.83;79.04;98899.05;1777207;81;21006;-85
2022/07/06 03:15:56;;;;;;;4.87;2.40;;;;;;;20.91;78.48;98895.86;1777167;81;21001;-85
2022/07/06 03:18:23;;;;;;;6.05;2.50;;;;;;;20.88;78.21;98893.91;1776982;81;21002;-84
2022/07/06 03:20:51;;;;;;;5.90;2.30;;;;;;;20.88;78.09;98901.83;1776865;81;20949;-85
2022/07/06 03:23:18;;;;;;;4.87;2.72;;;;;;;20.92;77.84;98896.21;1776904;81;21005;-85
2022/07/06 03:25:45;;;;;;;4.10;2.30;;;;;;;20.91;77.76;98905.56;1776382;81;21465;-84
2022/07/06 03:28:12;;;;;;;7.03;2.87;;;;;;;20.92;77.55;98894.05;1776571;81;20950;-85
2022/07/06 03:30:39;;;;;;;8.13;2.37;;;;;;;20.87;78.40;98891.75;1776657;81;20974;-85
2022/07/06 03:33:06;;;;;;;5.30;2.98;;;;;;;20.94;77.23;98896.11;1776574;81;20970;-85
2022/07/06 03:35:34;;;;;;;4.55;2.20;;;;;;;20.93;76.91;98895.73;1776829;81;21013;-85
2022/07/06 03:38:02;;;;;;;6.12;2.40;;;;;;;20.96;77.13;98895.52;1776629;81;21077;-83
2022/07/06 03:40:30;;;;;;;4.15;2.30;;;;;;;20.99;77.21;98887.36;1775002;80;21001;-82
2022/07/06 03:42:57;;;;;;;6.50;2.33;;;;;;;21.03;76.69;98885.73;1773872;81;21043;-84
2022/07/06 03:45:25;;;;;;;5.50;2.55;;;;;;;21.08;76.71;98877.47;1750703;81;20986;-83
2022/07/06 03:47:52;;;;;;;6.50;2.35;;;;;;;21.13;76.14;98875.34;1775174;81;20989;-85
2022/07/06 03:50:19;;;;;;;5.30;2.33;;;;;;;21.19;76.09;98876.70;1775106;80;21002;-85
2022/07/06 03:52:47;;;;;;;5.08;2.20;;;;;;;21.23;76.05;98878.17;1775319;80;21081;-86
2022/07/06 03:55:14;;;;;;;4.72;2.70;;;;;;;21.28;75.93;98865.44;1751290;81;21009;-85
2022/07/06 03:57:43;;;;;;;6.78;2.45;;;;;;;21.31;75.55;98868.33;1774505;80;21033;-85
2022/07/06 04:00:12;;;;;;;4.75;2.70;;;;;;;21.31;75.36;98861.72;1774200;80;21098;-84
2022/07/06 04:02:43;;;;;;;7.05;2.72;;;;;;;21.33;74.93;98862.00;1774707;80;21040;-84
2022/07/06 04:05:12;;;;;;;4.65;2.50;;;;;;;21.32;74.58;98858.98;1774806;81;21517;-85
2022/07/06 04:07:39;;;;;;;5.40;3.15;;;;;;;21.34;74.49;98860.19;1751438;81;21033;-86
2022/07/06 04:10:08;;;;;;;4.67;2.25;;;;;;;21.32;74.43;98854.17;1774686;80;20986;-84
2022/07/06 04:12:43;;;;;;;5.03;2.70;;;;;;;21.34;74.70;98859.70;1774978;80;20986;-85
2022/07/06 04:15:12;;;;;;;5.08;2.37;;;;;;;21.36;74.26;98862.25;1775254;81;21033;-85
2022/07/06 04:17:55;;;;;;;5.00;2.33;;;;;;;21.39;74.09;98859.39;1774623;81;20985;-84
2022/07/06 04:20:25;;;;;;;4.00;2.40;;;;;;;21.45;73.88;98862.94;1773865;80;21005;-85
2022/07/06 04:22:53;;;;;;;5.95;2.83;;;;;;;21.51;73.80;98857.67;1774982;81;20985;-85
2022/07/06 04:25:20;;;;;;;5.12;2.40;;;;;;;21.54;73.82;98855.63;1775100;81;21006;-84
2022/07/06 04:27:47;;;;;;;6.30;2.80;;;;;;;21.59;73.77;98854.81;1775181;81;21009;-85
2022/07/06 04:30:14;;;;;;;6.95;2.27;;;;;;;21.62;73.70;98851.09;1775249;80;20962;-85
2022/07/06 04:32:41;;;;;;;7.37;2.83;;;;;;;21.65;73.82;98846.42;1750858;81;20998;-85
2022/07/06 04:35:10;;;;;;;5.12;2.55;;;;;;;21.70;73.38;98846.55;1774348;81;20981;-85
2022/07/06 04:37:37;;;;;;;3.83;2.37;;;;;;;21.68;73.58;98847.15;1774362;81;20997;-85
2022/07/06 04:40:05;;;;;;;8.55;2.62;;;;;;;21.70;73.18;98845.23;1774219;80;21050;-84
2022/07/06 04:42:33;;;;;;;5.85;2.60;;;;;;;21.69;73.66;98849.69;1788440;80;21034;-84
2022/07/06 04:45:00;;;;;;;8.75;2.80;;;;;;;21.61;73.37;98849.42;1793364;80;20972;-84
2022/07/06 04:47:26;;;;;;;5.90;2.75;;;;;;;21.61;73.57;98860.84;1793656;80;21002;-85
2022/07/06 04:49:53;;;;;;;7.65;3.05;;;;;;;21.61;73.54;98860.84;1793681;80;20975;-85
2022/07/06 04:52:21;;;;;;;5.28;3.05;;;;;;;21.62;73.98;98861.67;1794214;80;20986;-85
2022/07/06 04:54:48;;;;;;;7.28;2.83;;;;;;;21.58;73.92;98859.73;1794165;80;20991;-85
2022/07/06 04:57:15;;;;;;;6.50;2.95;;;;;;;21.56;74.76;98856.35;1793940;80;21019;-86
2022/07/06 04:59:42;;;;;;;8.83;2.90;;;;;;;21.58;74.97;98858.89;1794265;80;21023;-84
2022/07/06 05:02:08;;;;;;;7.47;3.15;;;;;;;21.58;75.75;98865.50;1794094;80;21006;-84
2022/07/06 05:04:35;;;;;;;8.65;2.98;;;;;;;21.57;75.28;98856.73;1790518;80;20989;-84
2022/07/06 05:07:04;;;;;;;9.78;2.90;;;;;;;21.57;76.02;98858.05;1776547;80;21040;-85
2022/07/06 05:09:31;;;;;;;7.58;2.98;;;;;;;21.54;76.54;98859.59;1752919;81;21065;-85
2022/07/06 05:11:58;;;;;;;8.75;3.08;;;;;;;21.52;76.68;98866.80;1764885;80;21050;-84
2022/07/06 05:14:25;;;;;;;6.78;3.05;;;;;;;21.53;76.35;98864.53;1766497;80;20966;-85
2022/07/06 05:16:53;;;;;;;8.58;3.27;;;;;;;21.57;75.81;98875.25;1768291;81;21009;-85
2022/07/06 05:19:20;;;;;;;6.30;2.80;;;;;;;21.61;76.05;98872.73;1778009;79;21006;-83
2022/07/06 05:21:48;;;;;;;4.70;2.95;;;;;;;21.60;76.73;98879.45;1776196;78;20975;-84
2022/07/06 05:24:18;;;;;;;8.68;2.98;;;;;;;21.62;76.50;98882.34;1757838;80;20973;-84
2022/07/06 05:26:46;;;;;;;6.12;3.10;;;;;;;21.65;76.47;98882.13;1760917;80;20970;-78
2022/07/06 05:29:14;;;;;;;7.62;3.50;;;;;;;21.67;76.49;98889.13;1744670;81;20966;-79
2022/07/06 05:31:40;;;;;;;8.15;3.30;;;;;;;21.67;76.70;98893.93;1765724;80;20981;-78
2022/07/06 05:34:07;;;;;;;10.35;3.98;;;;;;;21.65;77.06;98899.33;1772529;80;20940;-78
2022/07/06 05:36:34;;;;;;;10.53;3.65;;;;;;;21.65;77.72;98903.30;1767764;80;21017;-78
2022/07/06 05:39:02;;;;;;;10.45;3.40;;;;;;;21.69;77.04;98904.41;1770816;80;21005;-79
2022/07/06 05:41:30;;;;;;;7.75;3.55;;;;;;;21.64;77.50;98916.14;1784501;79;21006;-76
2022/07/06 05:43:57;;;;;;;7.37;3.10;;;;;;;21.65;77.34;98925.78;1772811;79;21476;-78
2022/07/06 05:46:23;;;;;;;7.87;3.27;;;;;;;21.60;78.90;98921.78;1780997;80;20971;-78
2022/07/06 05:51:35;;;;;;;9.10;3.45;;;;;;;21.64;78.43;98925.40;1767686;80;21006;-78
2022/07/06 05:54:02;;;;;;;6.58;3.37;;;;;;;21.62;78.82;98923.34;1768649;80;20950;-78
2022/07/06 05:56:29;;;;;;;13.62;3.67;;;;;;;21.66;78.17;98920.00;1766101;80;20995;-77
2022/07/06 05:58:56;;;;;;;6.95;3.15;;;;;;;21.70;78.56;98920.14;1774589;80;21577;-77
2022/07/06 06:01:24;;;;;;;6.95;3.42;;;;;;;21.71;78.24;98922.33;1778038;80;21006;-78
2022/07/06 06:03:52;;;;;;;8.45;3.40;;;;;;;21.70;78.56;98933.86;1767963;80;20962;-78
2022/07/06 06:06:20;;;;;;;5.22;3.17;;;;;;;21.80;77.66;98929.57;1764183;79;21482;-77
2022/07/06 06:08:46;;;;;;;6.35;3.40;;;;;;;21.76;77.83;98940.02;1764423;80;20950;-78
2022/07/06 06:11:13;;;;;;;7.78;3.30;;;;;;;21.78;77.80;98933.64;1769396;79;21025;-78
2022/07/06 06:13:41;;;;;;;7.35;3.90;;;;;;;21.78;77.90;98936.29;1766912;80;20954;-78
2022/07/06 06:16:07;;;;;;;11.10;3.55;;;;;;;21.84;77.68;98936.31;1764749;79;21000;-77
2022/07/06 06:18:34;;;;;;;7.58;4.03;;;;;;;21.84;77.68;98938.52;1708764;82;20968;-79
2022/07/06 06:21:02;;;;;;;6.42;3.42;;;;;;;21.81;78.09;98932.59;1769603;79;21049;-84
2022/07/06 06:23:33;;;;;;;6.97;3.47;;;;;;;21.84;79.67;98938.97;1774468;79;20966;-89
2022/07/06 06:26:00;;;;;;;5.53;3.45;;;;;;;21.85;78.46;98935.38;1774567;80;20961;-85
2022/07/06 06:28:27;;;;;;;8.18;3.58;;;;;;;21.77;79.24;98925.36;1784170;80;21132;-85
2022/07/06 06:33:38;;;;;;;;;;;;;;;21.66;79.41;98926.62;1788922;80;21005;-86
2022/07/06 06:36:06;;;;;;;8.18;3.62;;;;;;;21.67;79.59;98930.97;1790906;79;20103;-86
2022/07/06 06:38:34;;;;;;;7.03;3.72;;;;;;;21.59;81.71;98925.39;1791265;79;21026;-88
2022/07/06 06:41:03;;;;;;;6.05;3.87;;;;;;;21.57;81.19;98922.86;1786145;80;20985;-84
2022/07/06 06:43:31;;;;;;;7.97;4.20;;;;;;;21.49;81.63;98930.97;1782356;80;20946;-86
2022/07/06 06:46:04;;;;;;;10.30;3.90;;;;;;;21.47;80.89;98920.52;1756273;80;21071;-86
2022/07/06 06:48:33;;;;;;;9.35;4.60;;;;;;;21.53;80.93;98916.11;1794977;80;20986;-86
2022/07/06 06:53:39;;;;;;;8.80;4.08;;;;;;;21.41;82.12;98924.42;1791486;79;20995;-86
2022/07/06 06:56:08;;;;;;;6.20;4.15;;;;;;;21.43;82.48;98915.93;1766253;81;21003;-86
2022/07/06 06:58:35;;;;;;;11.65;4.47;;;;;;;21.45;82.70;98918.47;1746980;80;20971;-87
2022/07/06 07:01:05;;;;;;;15.85;4.60;;;;;;;21.52;82.27;98917.53;1758082;80;21005;-86
2022/07/06 07:03:32;;;;;;;10.15;4.33;;;;;;;21.53;81.94;98913.95;1752591;81;20930;-87
2022/07/06 07:06:00;;;;;;;9.30;4.72;;;;;;;21.52;83.16;98917.05;1784347;80;21042;-87
2022/07/06 07:08:33;;;;;;;7.53;4.00;;;;;;;21.59;81.93;98915.66;1759288;81;21014;-88
2022/07/06 07:11:01;;;;;;;12.07;4.95;;;;;;;21.63;82.32;98918.44;1747246;82;20955;-85
2022/07/06 07:13:30;;;;;;;8.70;4.37;;;;;;;21.60;82.14;98919.14;1776695;79;20958;-86
2022/07/06 07:15:57;;;;;;;11.55;5.03;;;;;;;21.60;82.44;98909.39;1751264;80;21011;-86
2022/07/06 07:18:26;;;;;;;6.87;4.58;;;;;;;21.62;82.19;98907.48;1778268;80;21035;-86
2022/07/06 07:20:54;;;;;;;8.18;4.45;;;;;;;21.61;82.07;98907.61;1747158;80;21066;-87
2022/07/06 07:23:21;;;;;;;9.80;4.42;;;;;;;21.65;82.00;98911.23;1751484;80;21058;-86
2022/07/06 07:25:50;;;;;;;12.45;5.15;;;;;;;21.67;82.15;98908.48;1770311;80;20986;-87
2022/07/06 07:28:18;;;;;;;14.90;4.55;;;;;;;21.68;81.69;98907.99;1784102;80;20994;-87
2022/07/06 07:30:46;;;;;;;15.75;5.08;;;;;;;21.71;81.71;98907.30;1781811;80;21038;-86
2022/07/06 07:33:13;;;;;;;12.70;5.08;;;;;;;21.68;81.43;98910.64;1776379;80;21041;-86
2022/07/06 07:35:41;;;;;;;11.35;5.10;;;;;;;21.71;81.32;98911.27;1780287;79;21033;-88
2022/07/06 07:38:13;;;;;;;8.85;5.05;;;;;;;21.76;81.66;98917.04;1783720;79;20952;-87
2022/07/06 07:40:42;;;;;;;7.35;4.85;;;;;;;21.83;81.57;98921.42;1745602;82;21009;-88
2022/07/06 07:43:12;;;;;;;7.62;4.12;;;;;;;21.91;80.83;98925.66;1767997;81;21029;-87
2022/07/06 07:45:41;;;;;;;7.45;4.55;;;;;;;21.93;80.69;98922.91;1780708;80;21054;-87
2022/07/06 07:48:09;;;;;;;10.25;4.65;;;;;;;21.97;80.57;98927.84;1760186;80;20978;-88
2022/07/06 07:50:42;;;;;;;9.28;4.62;;;;;;;21.95;80.56;98921.82;1787207;80;20986;-88
2022/07/06 07:53:33;;;;;;;12.13;5.42;;;;;;;21.98;80.80;98924.70;1789957;80;20955;-88
2022/07/06 07:56:01;;;;;;;10.60;5.87;;;;;;;22.01;80.34;98924.48;1775030;80;20979;-88
2022/07/06 07:58:31;;;;;;;7.05;4.17;;;;;;;22.04;79.93;98928.22;1747799;80;21046;-86
2022/07/06 08:00:58;;;;;;;10.18;4.45;;;;;;;22.05;79.88;98925.95;1775670;79;20940;-88
2022/07/06 08:03:25;;;;;;;6.33;3.95;;;;;;;22.13;79.95;98921.41;1764481;79;21031;-86
2022/07/06 08:05:53;;;;;;;8.53;4.03;;;;;;;22.18;79.50;98925.39;1708205;80;21187;-86
2022/07/06 08:08:20;;;;;;;9.33;4.35;;;;;;;22.14;79.27;98925.23;1726991;81;21627;-84
2022/07/06 08:10:49;;;;;;;7.72;4.25;;;;;;;22.18;78.67;98929.36;1722666;82;21058;-87
2022/07/06 08:13:16;;;;;;;6.97;4.15;;;;;;;22.14;78.98;98931.02;1722257;82;21030;-87
2022/07/06 08:15:43;;;;;;;7.72;4.10;;;;;;;22.13;79.23;98934.64;1719569;82;21029;-87
2022/07/06 08:18:13;;;;;;;9.45;4.20;;;;;;;22.12;79.00;98938.23;1710636;82;20963;-87
2022/07/06 08:20:40;;;;;;;7.08;4.75;;;;;;;22.09;79.17;98939.80;1723371;82;20995;-87
2022/07/06 08:23:07;;;;;;;8.03;4.42;;;;;;;22.13;79.26;98942.58;1718732;82;21016;-86
2022/07/06 08:25:35;;;;;;;6.87;4.12;;;;;;;22.06;79.90;98946.15;1658807;85;21112;-87
2022/07/06 08:28:03;;;;;;;7.00;4.05;;;;;;;22.06;79.43;98946.15;1676648;82;21091;-87
2022/07/06 08:30:35;;;;;;;8.80;4.58;;;;;;;22.08;79.79;98944.23;1714851;82;21091;-88
2022/07/06 08:33:04;;;;;;;8.38;4.50;;;;;;;22.01;79.92;98950.96;1689659;82;21142;-87
2022/07/06 08:35:34;;;;;;;6.47;3.90;;;;;;;21.91;81.11;98945.50;1739869;81;21032;-87
2022/07/06 08:38:08;;;;;;;6.78;4.25;;;;;;;21.89;81.48;98946.09;1719939;81;21095;-88
2022/07/06 08:40:42;;;;;;;6.80;4.28;;;;;;;21.87;80.98;98950.66;1691285;83;21030;-87
2022/07/06 08:43:11;;;;;;;7.50;4.05;;;;;;;21.89;81.14;98954.03;1733627;83;20948;-86
2022/07/06 08:45:46;;;;;;;7.25;4.20;;;;;;;21.82;81.56;98955.44;1718544;83;21457;-87
2022/07/06 08:48:12;;;;;;;7.05;4.72;;;;;;;21.84;81.49;98954.84;1692770;81;21050;-87
2022/07/06 08:50:41;;;;;;;8.48;5.40;;;;;;;21.86;81.00;98958.22;1720910;83;21029;-88
2022/07/06 08:53:11;;;;;;;10.88;5.10;;;;;;;21.88;81.92;98953.66;1689446;84;21043;-87
2022/07/06 08:55:40;;;;;;;7.35;4.80;;;;;;;21.93;81.17;98960.79;1714624;81;21088;-87
2022/07/06 08:58:08;;;;;;;7.62;4.30;;;;;;;21.94;81.60;98958.49;1740493;81;20956;-86
2022/07/06 09:00:39;;;;;;;6.25;4.47;;;;;;;21.98;82.04;98953.82;1719046;83;21038;-88
2022/07/06 09:06:31;;;;;;;8.28;4.30;;;;;;;22.01;81.31;98958.90;1738700;81;21552;-88
2022/07/06 09:09:23;;;;;;;8.88;4.33;;;;;;;22.00;81.87;98962.03;1728483;81;20965;-88
2022/07/06 09:21:07;;;;;;;5.70;3.22;;;;;;;22.04;81.49;98957.33;1704904;82;21146;-88
2022/07/06 09:23:36;;;;;;;6.25;3.58;;;;;;;21.99;81.33;98965.63;1708857;83;21014;-86
2022/07/06 09:26:08;;;;;;;6.05;3.80;;;;;;;22.06;81.45;98966.00;1692220;84;21038;-88
2022/07/06 09:28:47;;;;;;;5.22;3.50;;;;;;;21.99;82.13;98962.98;1716942;83;21027;-87
2022/07/06 09:31:14;;;;;;;6.60;4.05;;;;;;;22.03;82.03;98964.92;1714814;84;21055;-85
2022/07/06 09:34:05;;;;;;;6.87;4.47;;;;;;;21.95;82.94;98966.81;1708191;83;21005;-88
2022/07/06 09:36:46;;;;;;;6.10;4.47;;;;;;;21.96;82.32;98971.62;1715153;84;20954;-89
2022/07/06 09:39:24;;;;;;;6.97;4.60;;;;;;;21.97;82.64;98966.70;1671742;82;21207;-87
2022/07/06 09:41:54;;;;;;;19.80;4.15;;;;;;;22.00;82.08;98966.01;1633866;88;21052;-87
2022/07/06 09:44:31;;;;;;;6.15;4.30;;;;;;;22.01;82.48;98966.84;1637434;88;21074;-87
2022/07/06 09:47:01;;;;;;;7.47;4.03;;;;;;;21.95;82.70;98969.95;1636650;88;21036;-85
2022/07/06 09:49:32;;;;;;;6.42;4.25;;;;;;;21.90;82.98;98968.94;1633172;88;21068;-88
2022/07/06 09:52:04;;;;;;;7.45;3.95;;;;;;;21.92;83.21;98970.16;1588446;88;21099;-87
2022/07/06 09:54:34;;;;;;;7.97;4.40;;;;;;;21.97;83.17;98976.81;1611004;88;21003;-88
2022/07/06 09:57:05;;;;;;;7.40;4.42;;;;;;;21.93;83.22;98975.34;1632030;88;20975;-89
2022/07/06 09:59:36;;;;;;;6.08;4.20;;;;;;;21.90;83.95;98971.59;1638291;88;21647;-89
2022/07/06 10:02:08;;;;;;;6.53;4.15;;;;;;;21.91;83.55;98966.67;1637215;87;21020;-88
2022/07/06 10:07:38;;;;;;;9.73;4.85;;;;;;;21.79;83.38;98975.04;1754791;80;21077;-88
2022/07/06 10:10:06;;;;;;;8.63;4.42;;;;;;;21.83;84.16;98971.20;1741392;80;21138;-88
2022/07/06 10:12:35;;;;;;;8.38;5.05;;;;;;;21.89;83.88;98973.05;1715762;84;20985;-87
2022/07/06 10:15:10;;;;;;;11.12;4.62;;;;;;;21.83;85.11;98970.38;1693732;84;21031;-87
2022/07/06 10:17:41;;;;;;;8.43;4.40;;;;;;;21.88;84.74;98974.83;1712558;83;21076;-87
2022/07/06 10:23:05;;;;;;;;;;;;;;;21.94;85.49;98974.38;1722498;81;21162;-87
2022/07/06 10:25:36;;;;;;;9.13;4.72;;;;;;;22.08;85.17;98968.55;1705533;83;20071;-86
2022/07/06 10:28:13;;;;;;;9.53;5.25;;;;;;;22.10;84.45;98971.92;1731132;82;21041;-88
2022/07/06 10:30:38;;;;;;;7.67;5.00;;;;;;;22.11;85.41;98973.13;1648214;86;21066;-87
2022/07/06 10:33:08;;;;;;;8.30;4.92;;;;;;;22.24;84.96;98967.78;1724549;82;21030;-88
2022/07/06 10:35:42;;;;;;;6.97;4.72;;;;;;;22.37;83.99;98960.61;1729797;82;21077;-87
2022/07/06 10:38:12;;;;;;;7.20;5.07;;;;;;;22.41;84.74;98964.70;1722072;82;21022;-88
2022/07/06 10:43:46;;;;;;;8.70;4.90;;;;;;;22.59;83.20;98965.59;1702792;83;21039;-87
2022/07/06 10:46:23;;;;;;;9.00;5.05;;;;;;;22.50;83.03;98968.48;1648960;84;20963;-88
2022/07/06 10:48:51;;;;;;;11.55;5.20;;;;;;;22.49;82.69;98965.94;1697362;84;21552;-88
2022/07/06 10:51:32;;;;;;;7.08;4.85;;;;;;;22.57;81.90;98966.19;1679463;86;20981;-88
2022/07/06 10:54:07;;;;;;;6.97;4.85;;;;;;;22.49;82.45;98964.61;1636712;86;21007;-83
2022/07/06 10:56:40;;;;;;;7.60;4.72;;;;;;;22.61;81.97;98963.17;1663314;84;20970;-88
2022/07/06 10:59:14;;;;;;;10.70;5.47;;;;;;;22.62;81.61;98967.98;1721312;82;21019;-87
2022/07/06 11:02:12;;;;;;;6.28;4.50;;;;;;;22.61;82.11;98970.30;1737243;82;21075;-87
2022/07/06 11:04:44;;;;;;;7.78;4.97;;;;;;;22.66;81.18;98970.80;1687409;84;21040;-88
2022/07/06 11:07:15;;;;;;;12.18;7.95;;;;;;;22.67;81.26;98967.16;1711929;82;21042;-87
2022/07/06 11:10:02;;;;;;;8.90;5.70;;;;;;;22.69;81.26;98961.75;1701704;82;21457;-87
2022/07/06 11:12:29;;;;;;;9.85;5.80;;;;;;;22.74;81.50;98958.25;1703591;83;21069;-86
2022/07/06 11:14:56;;;;;;;7.60;5.85;;;;;;;22.79;81.58;98965.37;1722661;83;20986;-87
2022/07/06 11:17:24;;;;;;;8.03;5.30;;;;;;;22.90;81.84;98956.58;1725902;82;20985;-87
2022/07/06 11:20:10;;;;;;;7.97;5.25;;;;;;;22.92;81.21;98958.63;1697348;83;21046;-87
2022/07/06 11:22:41;;;;;;;8.85;5.35;;;;;;;23.03;81.30;98962.64;1693494;83;21061;-89
2022/07/06 11:25:12;;;;;;;9.75;6.20;;;;;;;23.18;80.96;98958.78;1737661;82;21011;-89
2022/07/06 11:27:40;;;;;;;7.83;5.90;;;;;;;23.28;80.77;98954.92;1741370;80;21022;-89
2022/07/06 11:30:12;;;;;;;11.15;6.10;;;;;;;23.31;80.15;98958.63;1700225;83;21041;-89
2022/07/06 11:32:55;;;;;;;11.78;6.87;;;;;;;23.34;79.88;98955.75;1690514;83;20952;-89
2022/07/06 11:36:21;;;;;;;10.40;6.35;;;;;;;23.36;79.66;98953.82;1695661;83;20997;-89
2022/07/06 11:41:21;;;;;;;7.42;5.10;;;;;;;23.48;78.69;98953.31;1668296;85;21064;-87
2022/07/06 11:43:52;;;;;;;9.53;5.47;;;;;;;23.55;77.48;98950.50;1722998;81;21065;-86
2022/07/06 11:46:38;;;;;;;8.10;5.37;;;;;;;23.58;77.19;98952.92;1752159;81;21457;-89
2022/07/06 11:58:43;;;;;;;6.30;4.17;;;;;;;23.95;76.09;98947.27;1669589;85;21099;-86
2022/07/06 12:07:17;;;;;;;5.20;3.67;;;;;;;24.33;74.27;98948.55;1681587;83;21053;-88
2022/07/06 12:09:46;;;;;;;6.28;4.12;;;;;;;24.45;73.42;98949.80;1710641;83;20975;-88
2022/07/06 12:12:18;;;;;;;5.85;3.92;;;;;;;24.64;73.65;98949.11;1717367;81;21016;-89
2022/07/06 12:24:16;;;;;;;6.87;3.92;;;;;;;24.91;71.44;98937.42;1651480;79;21224;-86
2022/07/06 12:30:11;;;;;;;10.85;4.20;;;;;;;25.04;70.49;98939.84;1724028;80;21087;-90
2022/07/06 12:38:32;;;;;;;6.58;3.72;;;;;;;24.87;67.91;98936.48;1592957;86;21159;-89
2022/07/06 12:41:02;;;;;;;6.22;3.98;;;;;;;24.83;67.97;98943.03;1673769;84;20980;-89
2022/07/06 12:43:42;;;;;;;7.28;4.35;;;;;;;24.72;67.64;98932.02;1650188;84;20995;-89
2022/07/06 12:46:32;;;;;;;5.72;3.67;;;;;;;24.61;67.44;98934.25;1701159;81;21071;-88
2022/07/06 12:49:06;;;;;;;5.22;3.42;;;;;;;24.49;67.80;98933.94;1663163;84;21126;-89
2022/07/06 12:51:53;;;;;;;5.72;3.45;;;;;;;24.44;67.14;98929.03;1692598;84;21023;-87